Ana Sayfa
METAR-TAF:

METAR-TAF

Havaalanları :

Provo Municipal Airport

Provo, Utah, Amerika Birleşik Devletleri

Enlem: 40-13N, Boylam: 111-43W, yükseklik: 1369 m

Güncel hava durumu gözlemi

Rapor saat 05:56 UTC de 25 dakika önce yapıldı.
Rüzgar güney/güneydoğudan 3 kt
Sıcaklık 22°C
Nem 25%
Basınç 1018 hPa
Görüş mesafesi: 12.9 km
Açık gökyüzü

METAR: KPVU 020556Z AUTO 15003KT 8SM CLR 22/01 A3007 RMK AO2 SLP119 T02220011 10306 20200 51020

Saat: 00:21 (06:21 UTC)

Tahmin

Rapor saat 05:20 UTC de 1 saat ve 1 dakika önce yapıldı.
Ayın 02'si saat 06 UTC'den ayın 03'si saat 06 UTC'ye kadar geçerli Tahmin
Rüzgar kuzeydan kt ve 15 kt'a kadar ani rüzgarlar
Görüş mesafesi: 10 km
25000 ft yükseklikte az bulutlu

TAF: KPVU 020520Z 0206/0306 00000G15KT P6SM FEW250

4.000'den fazla havaalanı için hava durumu gözlemleri ve tahminleri (METAR ve TAF raporları).

Kullanılabilir istasyonlar harita üzerinde sarı ve kırmızı noktalarla gösterilir.

İstasyonun adını görmek için fareyi noktanın üzerinde gezdirin.

Sonrasında hava gözlem ve tahminlerini görmek için tıklayın.

Haritayı değiştirmek için: yaklaştırmak için siyah artı işaretli yeşil düğmeye ve uzaklaştırmak için de eksi işaretli düğmeye hızla tıklayın; bitişik haritalar için yeşil okları kullanın.


METAR-TAF: